createdAt,value
2019-02-21T00:01:05.376Z,10.93
2019-02-21T00:03:34.174Z,11.10
2019-02-21T00:06:02.940Z,7.97
2019-02-21T00:08:31.660Z,12.37
2019-02-21T00:11:00.493Z,9.20
2019-02-21T00:13:29.264Z,9.45
2019-02-21T00:15:58.027Z,9.83
2019-02-21T00:18:26.747Z,11.23
2019-02-21T00:20:55.480Z,11.10
2019-02-21T00:23:24.156Z,10.07
2019-02-21T00:25:55.663Z,8.90
2019-02-21T00:28:23.380Z,11.57
2019-02-21T00:30:52.061Z,8.10
2019-02-21T00:33:20.721Z,9.27
2019-02-21T00:35:49.427Z,9.73
2019-02-21T00:38:18.007Z,8.77
2019-02-21T00:40:46.662Z,11.20
2019-02-21T00:43:15.399Z,9.80
2019-02-21T00:45:44.006Z,9.77
2019-02-21T00:48:12.722Z,9.97
2019-02-21T00:50:41.446Z,11.77
2019-02-21T00:53:10.184Z,10.77
2019-02-21T00:55:38.885Z,11.10
2019-02-21T00:58:07.611Z,9.70
2019-02-21T01:00:46.172Z,10.07
2019-02-21T01:03:06.939Z,11.20
2019-02-21T01:05:35.643Z,9.80
2019-02-21T01:08:05.344Z,9.83
2019-02-21T01:10:33.967Z,12.10
2019-02-21T01:13:02.625Z,10.70
2019-02-21T01:15:31.435Z,12.70
2019-02-21T01:18:00.057Z,11.05
2019-02-21T01:20:28.777Z,11.70
2019-02-21T01:22:57.454Z,10.67
2019-02-21T01:25:26.171Z,8.97
2019-02-21T01:27:54.961Z,10.53
2019-02-21T01:30:23.567Z,10.70
2019-02-21T01:32:52.299Z,13.97
2019-02-21T01:35:20.993Z,10.40
2019-02-21T01:37:49.673Z,10.50
2019-02-21T01:40:18.443Z,12.20
2019-02-21T01:42:47.106Z,10.43
2019-02-21T01:45:15.791Z,12.57
2019-02-21T01:47:44.365Z,9.47
2019-02-21T01:50:13.121Z,11.60
2019-02-21T01:52:41.705Z,11.85
2019-02-21T01:55:10.349Z,8.20
2019-02-21T01:57:39.062Z,11.67
2019-02-21T02:00:10.818Z,11.33
2019-02-21T02:02:39.630Z,8.47
2019-02-21T02:05:09.116Z,13.73
2019-02-21T02:07:38.923Z,13.10
2019-02-21T02:10:10.488Z,11.03
2019-02-21T02:12:39.178Z,10.77
2019-02-21T02:15:10.517Z,10.78
2019-02-21T02:17:39.329Z,12.93
2019-02-21T02:20:09.233Z,12.68
2019-02-21T02:22:38.050Z,12.53
2019-02-21T02:25:07.366Z,12.20
2019-02-21T02:27:35.921Z,13.90
2019-02-21T02:30:06.550Z,13.30
2019-02-21T02:32:35.246Z,12.80
2019-02-21T02:35:04.463Z,12.75
2019-02-21T02:37:33.176Z,13.80
2019-02-21T02:40:02.020Z,13.13
2019-02-21T02:42:30.697Z,11.70
2019-02-21T02:44:59.329Z,12.07
2019-02-21T02:47:28.101Z,13.75
2019-02-21T02:49:56.820Z,14.73
2019-02-21T02:52:25.585Z,13.17
2019-02-21T02:54:54.315Z,13.10
2019-02-21T02:57:22.946Z,13.47
2019-02-21T02:59:51.789Z,14.27
2019-02-21T03:02:20.403Z,14.90
2019-02-21T03:04:49.167Z,14.40
2019-02-21T03:07:17.855Z,12.35
2019-02-21T03:09:46.576Z,14.67
2019-02-21T03:12:15.154Z,14.83
2019-02-21T03:14:43.870Z,13.80
2019-02-21T03:17:12.518Z,14.27
2019-02-21T03:19:41.239Z,13.70
2019-02-21T03:22:10.082Z,15.73
2019-02-21T03:24:38.754Z,13.37
2019-02-21T03:27:07.472Z,13.43
2019-02-21T03:29:36.237Z,17.70
2019-02-21T03:32:05.520Z,14.60
2019-02-21T03:34:34.215Z,13.97
2019-02-21T03:37:02.888Z,12.43
2019-02-21T03:39:31.516Z,15.70
2019-02-21T03:42:00.387Z,15.80
2019-02-21T03:44:29.049Z,13.90
2019-02-21T03:46:57.774Z,16.20
2019-02-21T03:49:28.498Z,13.20
2019-02-21T03:51:57.207Z,15.73
2019-02-21T03:54:25.902Z,11.90
2019-02-21T03:56:54.598Z,15.20
2019-02-21T03:59:23.302Z,15.57
2019-02-21T04:01:52.063Z,15.37
2019-02-21T04:04:20.796Z,17.10
2019-02-21T04:06:49.513Z,14.70
2019-02-21T04:09:18.236Z,14.60
2019-02-21T04:11:47.072Z,15.37
2019-02-21T04:14:15.937Z,15.50
2019-02-21T04:16:44.696Z,13.90
2019-02-21T04:19:13.404Z,17.07
2019-02-21T04:21:42.002Z,14.87
2019-02-21T04:24:10.962Z,14.80
2019-02-21T04:26:39.689Z,13.27
2019-02-21T04:29:08.492Z,18.67
2019-02-21T04:31:37.068Z,15.67
2019-02-21T04:34:05.590Z,17.10
2019-02-21T04:36:34.348Z,15.93
2019-02-21T04:39:03.753Z,16.97
2019-02-21T04:41:32.417Z,19.03
2019-02-21T04:44:03.818Z,18.40
2019-02-21T04:46:31.475Z,17.77
2019-02-21T04:49:00.234Z,17.27
2019-02-21T04:51:28.882Z,18.42
2019-02-21T04:53:57.682Z,17.70
2019-02-21T04:56:26.371Z,17.40
2019-02-21T04:58:55.113Z,18.25
2019-02-21T05:01:23.967Z,14.90
2019-02-21T05:03:52.654Z,17.03
2019-02-21T05:06:21.303Z,15.18
2019-02-21T05:08:49.931Z,18.03
2019-02-21T05:11:18.792Z,15.98
2019-02-21T05:13:49.300Z,16.70
2019-02-21T05:16:17.935Z,20.00
2019-02-21T05:18:46.719Z,19.00
2019-02-21T05:21:17.175Z,17.73
2019-02-21T05:23:45.938Z,17.97
2019-02-21T05:26:16.243Z,18.73
2019-02-21T05:28:45.543Z,21.00
2019-02-21T05:31:16.214Z,18.33
2019-02-21T05:33:46.592Z,21.93
2019-02-21T05:36:33.262Z,19.77
2019-02-21T05:39:06.338Z,19.97
2019-02-21T05:41:51.588Z,18.23
2019-02-21T05:44:21.853Z,19.77
2019-02-21T05:47:08.368Z,18.47
2019-02-21T05:49:38.587Z,20.73
2019-02-21T05:52:14.733Z,24.13
2019-02-21T05:54:51.443Z,22.63
2019-02-21T05:57:21.746Z,23.40
2019-02-21T05:59:58.170Z,18.90
2019-02-21T06:02:31.299Z,18.02
2019-02-21T06:05:15.212Z,17.60
2019-02-21T06:07:48.199Z,21.20
2019-02-21T06:10:18.833Z,22.40
2019-02-21T06:12:55.212Z,21.80
2019-02-21T06:15:25.953Z,19.60
2019-02-21T06:17:58.869Z,21.60
2019-02-21T06:20:30.256Z,18.90
2019-02-21T06:23:06.576Z,19.67
2019-02-21T06:25:58.273Z,18.57
2019-02-21T06:28:31.200Z,18.27
2019-02-21T06:31:01.500Z,20.85
2019-02-21T06:33:30.158Z,21.65
2019-02-21T06:35:58.780Z,21.70
2019-02-21T06:38:27.540Z,19.93
2019-02-21T06:40:56.426Z,17.43
2019-02-21T06:43:25.178Z,17.67
2019-02-21T06:45:53.913Z,18.17
2019-02-21T06:48:22.623Z,17.50
2019-02-21T06:50:51.390Z,15.07
2019-02-21T06:53:20.099Z,13.90
2019-02-21T06:55:48.832Z,14.87
2019-02-21T06:58:17.751Z,15.77
2019-02-21T07:00:46.449Z,15.83
2019-02-21T07:03:16.142Z,16.10
2019-02-21T07:05:45.052Z,18.50
2019-02-21T07:08:13.849Z,16.57
2019-02-21T07:10:42.444Z,8.50
2019-02-21T07:13:11.158Z,13.15
2019-02-21T07:15:39.817Z,13.97
2019-02-21T07:18:11.034Z,11.33
2019-02-21T07:20:39.779Z,11.63
2019-02-21T07:23:11.197Z,16.15
2019-02-21T07:25:46.308Z,15.23
2019-02-21T07:28:16.114Z,12.93
2019-02-21T07:30:46.255Z,16.03
2019-02-21T07:33:14.914Z,17.30
2019-02-21T07:35:43.667Z,19.20
2019-02-21T07:38:12.421Z,17.53
2019-02-21T07:40:41.157Z,15.98
2019-02-21T07:43:12.598Z,18.27
2019-02-21T07:45:40.367Z,15.87
2019-02-21T07:48:09.006Z,18.40
2019-02-21T07:50:37.781Z,17.37
2019-02-21T07:53:06.458Z,17.17
2019-02-21T07:55:35.223Z,16.63
2019-02-21T07:58:04.122Z,18.40
2019-02-21T08:00:33.408Z,14.10
2019-02-21T08:03:02.140Z,10.80
2019-02-21T08:05:30.880Z,17.40
2019-02-21T08:07:59.643Z,12.40
2019-02-21T08:10:33.674Z,14.03
2019-02-21T08:12:58.743Z,15.83
2019-02-21T08:15:27.828Z,16.43
2019-02-21T08:17:56.612Z,16.87
2019-02-21T08:20:33.571Z,15.75
2019-02-21T08:22:55.810Z,13.67
2019-02-21T08:25:24.550Z,14.60
2019-02-21T08:27:53.259Z,13.13
2019-02-21T08:30:21.968Z,15.83
2019-02-21T08:33:01.130Z,17.10
2019-02-21T08:35:31.414Z,15.40
2019-02-21T08:38:00.145Z,16.27
2019-02-21T08:40:28.911Z,17.10
2019-02-21T08:42:57.616Z,18.73
2019-02-21T08:45:26.321Z,17.00
2019-02-21T08:47:55.023Z,19.15
2019-02-21T08:50:23.659Z,16.70
2019-02-21T08:52:52.316Z,17.93
2019-02-21T08:55:21.194Z,20.10
2019-02-21T08:57:49.850Z,18.07
2019-02-21T09:00:18.493Z,18.67
2019-02-21T09:02:47.166Z,17.70
2019-02-21T09:05:17.385Z,18.12
2019-02-21T09:07:46.649Z,18.60
2019-02-21T09:10:15.380Z,17.83
2019-02-21T09:12:48.191Z,18.17
2019-02-21T09:15:17.833Z,19.03
2019-02-21T09:17:46.460Z,18.80
2019-02-21T09:20:15.249Z,18.30
2019-02-21T09:22:43.929Z,18.80
2019-02-21T09:25:14.253Z,16.87
2019-02-21T09:27:42.929Z,18.60
2019-02-21T09:30:19.190Z,17.37
2019-02-21T09:32:48.012Z,17.30
2019-02-21T09:35:16.674Z,13.93
2019-02-21T09:37:45.357Z,17.60
2019-02-21T09:40:15.257Z,17.97
2019-02-21T09:42:44.009Z,17.93
2019-02-21T09:45:19.998Z,16.07
2019-02-21T09:47:48.730Z,18.63
2019-02-21T09:50:17.439Z,13.17
2019-02-21T09:52:46.188Z,15.77
2019-02-21T09:55:17.517Z,16.43
2019-02-21T09:57:46.205Z,13.70
2019-02-21T10:00:17.604Z,13.77
2019-02-21T10:02:46.441Z,15.10
2019-02-21T10:05:15.077Z,13.65
2019-02-21T10:07:43.767Z,10.67
2019-02-21T10:10:17.930Z,14.87
2019-02-21T10:12:46.607Z,15.10
2019-02-21T10:15:17.642Z,15.80
2019-02-21T10:17:46.336Z,10.53
2019-02-21T10:20:22.828Z,18.73
2019-02-21T10:22:51.583Z,15.90
2019-02-21T10:25:25.874Z,19.07
2019-02-21T10:27:54.618Z,15.50
2019-02-21T10:30:23.973Z,10.80
2019-02-21T10:32:52.665Z,17.07
2019-02-21T10:35:21.381Z,20.43
2019-02-21T10:37:50.055Z,24.13
2019-02-21T10:42:39.224Z,21.37
2019-02-21T10:45:13.374Z,22.13
2019-02-21T10:47:41.996Z,22.33
2019-02-21T10:50:14.311Z,21.93
2019-02-21T10:52:43.309Z,21.20
2019-02-21T10:55:11.942Z,23.57
2019-02-21T10:57:41.387Z,20.40
2019-02-21T11:00:36.042Z,21.12
2019-02-21T11:03:05.252Z,22.37
2019-02-21T11:05:33.983Z,20.10
2019-02-21T11:08:02.799Z,13.17
2019-02-21T11:10:31.813Z,19.43
2019-02-21T11:13:01.142Z,21.40
2019-02-21T11:15:30.263Z,20.80
2019-02-21T11:17:58.904Z,21.70
2019-02-21T11:20:27.775Z,14.50
2019-02-21T11:22:56.448Z,20.30
2019-02-21T11:25:25.219Z,18.37
2019-02-21T11:27:53.855Z,10.18
2019-02-21T11:30:23.093Z,13.90
2019-02-21T11:32:51.829Z,19.87
2019-02-21T11:35:20.470Z,20.62
2019-02-21T11:37:49.232Z,19.93
2019-02-21T11:40:19.913Z,24.50
2019-02-21T11:42:49.301Z,20.43
2019-02-21T11:45:20.672Z,20.80
2019-02-21T11:47:49.620Z,23.37
2019-02-21T11:50:20.092Z,18.90
2019-02-21T11:52:48.804Z,21.77
2019-02-21T11:55:39.522Z,23.55
2019-02-21T11:58:08.305Z,26.73
2019-02-21T12:00:38.989Z,19.67
2019-02-21T12:03:07.808Z,24.30
2019-02-21T12:05:37.288Z,22.40
2019-02-21T12:08:06.091Z,17.90
2019-02-21T12:10:34.971Z,21.97
2019-02-21T12:13:03.593Z,19.20
2019-02-21T12:15:32.237Z,19.52
2019-02-21T12:18:11.992Z,25.20
2019-02-21T12:20:40.667Z,21.50
2019-02-21T12:23:09.412Z,19.07
2019-02-21T12:25:38.143Z,22.80
2019-02-21T12:28:06.960Z,22.27
2019-02-21T12:30:35.664Z,24.70
2019-02-21T12:33:05.199Z,22.90
2019-02-21T12:35:47.008Z,19.47
2019-02-21T12:38:15.739Z,17.12
2019-02-21T12:40:44.434Z,19.50
2019-02-21T12:43:14.261Z,20.40
2019-02-21T12:45:43.249Z,18.20
2019-02-21T12:48:12.451Z,21.48
2019-02-21T12:50:44.558Z,20.03
2019-02-21T12:53:12.613Z,20.85
2019-02-21T12:55:41.700Z,20.90
2019-02-21T12:58:10.489Z,17.27
2019-02-21T13:00:39.232Z,19.37
2019-02-21T13:03:08.317Z,17.98
2019-02-21T13:05:41.059Z,20.90
2019-02-21T13:08:08.014Z,15.03
2019-02-21T13:10:37.146Z,14.10
2019-02-21T13:13:06.715Z,15.90
2019-02-21T13:15:35.927Z,18.23
2019-02-21T13:18:15.825Z,16.90
2019-02-21T13:20:44.202Z,14.30
2019-02-21T13:23:13.045Z,13.00
2019-02-21T13:25:41.860Z,6.40
2019-02-21T13:28:11.635Z,12.10
2019-02-21T13:30:40.697Z,9.30
2019-02-21T13:33:09.811Z,9.20
2019-02-21T13:35:38.736Z,10.23
2019-02-21T13:38:07.913Z,10.37
2019-02-21T13:40:36.930Z,10.53
2019-02-21T13:43:06.095Z,9.27
2019-02-21T13:45:35.208Z,8.23
2019-02-21T13:48:04.346Z,9.20
2019-02-21T13:50:33.501Z,4.37
2019-02-21T13:53:02.648Z,7.37
2019-02-21T13:55:31.762Z,6.73
2019-02-21T13:58:00.759Z,9.50
2019-02-21T14:00:30.700Z,10.40
2019-02-21T14:02:59.666Z,8.73
2019-02-21T14:05:31.335Z,6.83
2019-02-21T14:08:00.490Z,8.27
2019-02-21T14:10:29.921Z,7.70
2019-02-21T14:12:59.045Z,7.23
2019-02-21T14:15:32.101Z,7.07
2019-02-21T14:18:00.893Z,7.73
2019-02-21T14:20:29.824Z,7.23
2019-02-21T14:22:58.992Z,7.37
2019-02-21T14:25:33.077Z,7.27
2019-02-21T14:27:59.040Z,7.20
2019-02-21T14:30:28.363Z,8.07
2019-02-21T14:32:57.197Z,7.10
2019-02-21T14:35:26.245Z,7.63
2019-02-21T14:37:55.310Z,7.83
2019-02-21T14:40:25.046Z,8.05
2019-02-21T14:42:53.807Z,7.60
2019-02-21T14:45:28.237Z,8.10
2019-02-21T14:47:57.910Z,8.00
2019-02-21T14:50:26.718Z,8.83
2019-02-21T14:52:55.471Z,9.80
2019-02-21T14:55:24.265Z,8.50
2019-02-21T14:57:52.985Z,8.63
2019-02-21T15:00:32.436Z,10.07
2019-02-21T15:03:05.639Z,10.90
2019-02-21T15:05:34.377Z,9.43
2019-02-21T15:08:03.025Z,10.23
2019-02-21T15:10:31.922Z,10.27
2019-02-21T15:13:00.571Z,9.40
2019-02-21T15:15:29.272Z,10.37
2019-02-21T15:18:06.868Z,9.97
2019-02-21T15:20:36.250Z,11.13
2019-02-21T15:22:58.905Z,10.57
2019-02-21T15:25:27.545Z,10.10
2019-02-21T15:27:56.381Z,9.23
2019-02-21T15:30:26.547Z,10.10
2019-02-21T15:32:55.272Z,11.37
2019-02-21T15:35:23.997Z,10.13
2019-02-21T15:37:52.627Z,9.50
2019-02-21T15:40:21.337Z,9.98
2019-02-21T15:42:52.560Z,11.45
2019-02-21T15:45:24.321Z,11.70
2019-02-21T15:47:53.856Z,12.50
2019-02-21T15:50:22.574Z,13.10
2019-02-21T15:52:53.824Z,14.47
2019-02-21T15:55:35.378Z,14.40
2019-02-21T15:58:19.958Z,15.40
2019-02-21T16:01:03.681Z,15.27
2019-02-21T16:03:33.632Z,17.70
2019-02-21T16:06:02.210Z,17.70
2019-02-21T16:08:31.084Z,17.90
2019-02-21T16:10:59.864Z,18.83
2019-02-21T16:13:28.873Z,20.25
2019-02-21T16:16:12.817Z,22.40
2019-02-21T16:18:42.563Z,20.73
2019-02-21T16:21:11.359Z,21.75
2019-02-21T16:23:40.094Z,22.43
2019-02-21T16:26:08.846Z,28.67
2019-02-21T16:28:37.496Z,26.40
2019-02-21T16:31:06.237Z,25.25
2019-02-21T16:33:35.011Z,31.97
2019-02-21T16:36:03.802Z,34.80
2019-02-21T16:38:33.284Z,33.13
2019-02-21T16:41:02.013Z,29.13
2019-02-21T16:43:30.729Z,32.90
2019-02-21T16:46:07.896Z,31.70
2019-02-21T16:48:31.042Z,32.40
2019-02-21T16:51:01.292Z,32.80
2019-02-21T16:53:30.752Z,36.13
2019-02-21T16:55:59.682Z,37.47
2019-02-21T16:58:28.472Z,35.20
2019-02-21T17:00:58.459Z,30.87
2019-02-21T17:03:27.196Z,34.40
2019-02-21T17:05:56.330Z,33.02
2019-02-21T17:08:25.008Z,30.73
2019-02-21T17:10:54.331Z,32.93
2019-02-21T17:13:23.865Z,32.50
2019-02-21T17:15:53.023Z,33.85
2019-02-21T17:18:24.123Z,34.13
2019-02-21T17:20:55.389Z,33.40
2019-02-21T17:23:24.385Z,33.40
2019-02-21T17:25:53.978Z,35.27
2019-02-21T17:28:22.778Z,33.02
2019-02-21T17:30:52.149Z,30.37
2019-02-21T17:33:21.765Z,26.07
2019-02-21T17:35:50.588Z,26.80
2019-02-21T17:38:19.374Z,30.25
2019-02-21T17:40:57.101Z,29.30
2019-02-21T17:43:25.824Z,31.30
2019-02-21T17:45:56.878Z,26.80
2019-02-21T17:48:31.599Z,26.30
2019-02-21T17:51:01.044Z,22.20
2019-02-21T17:53:29.830Z,20.48
2019-02-21T17:55:58.901Z,19.30
2019-02-21T17:58:27.714Z,26.80
2019-02-21T18:00:56.567Z,24.77
2019-02-21T18:03:25.222Z,29.90
2019-02-21T18:05:56.034Z,23.23
2019-02-21T18:08:24.500Z,16.50
2019-02-21T18:10:53.194Z,17.20
2019-02-21T18:13:21.951Z,19.62
2019-02-21T18:15:54.504Z,18.53
2019-02-21T18:18:25.534Z,18.67
2019-02-21T18:20:55.260Z,17.83
2019-02-21T18:23:24.675Z,20.50
2019-02-21T18:26:00.771Z,20.20
2019-02-21T18:28:30.607Z,20.60
2019-02-21T18:31:00.142Z,19.30
2019-02-21T18:33:39.157Z,19.97
2019-02-21T18:36:11.611Z,20.47
2019-02-21T18:38:40.306Z,21.03
2019-02-21T18:41:13.490Z,20.68
2019-02-21T18:43:56.946Z,19.20
2019-02-21T18:46:26.762Z,20.27
2019-02-21T18:48:55.481Z,18.33
2019-02-21T18:51:24.148Z,18.70
2019-02-21T18:53:52.854Z,20.63
2019-02-21T18:56:24.869Z,19.50
2019-02-21T18:58:55.021Z,21.00
2019-02-21T19:01:24.380Z,19.43
2019-02-21T19:03:57.677Z,18.97
2019-02-21T19:06:27.364Z,20.77
2019-02-21T19:08:56.251Z,20.02
2019-02-21T19:11:25.415Z,16.20
2019-02-21T19:13:54.772Z,17.25
2019-02-21T19:16:26.164Z,22.17
2019-02-21T19:18:54.982Z,20.57
2019-02-21T19:21:23.707Z,22.87
2019-02-21T19:23:52.506Z,25.05
2019-02-21T19:26:21.291Z,26.13
2019-02-21T19:28:50.106Z,28.87
2019-02-21T19:31:21.644Z,25.47
2019-02-21T19:33:50.344Z,23.07
2019-02-21T19:36:19.163Z,23.63
2019-02-21T19:38:49.179Z,23.90
2019-02-21T19:41:18.340Z,18.90
2019-02-21T19:43:51.396Z,20.20
2019-02-21T19:46:21.439Z,21.87
2019-02-21T19:48:51.179Z,20.90
2019-02-21T19:51:20.898Z,22.67
2019-02-21T19:53:53.524Z,19.90
2019-02-21T19:56:22.466Z,24.10
2019-02-21T19:58:51.232Z,31.67
2019-02-21T20:01:20.017Z,30.27
2019-02-21T20:03:52.131Z,24.93
2019-02-21T20:06:25.314Z,22.85
2019-02-21T20:08:55.635Z,20.80
2019-02-21T20:11:24.988Z,20.47
2019-02-21T20:13:56.257Z,22.20
2019-02-21T20:16:25.053Z,24.47
2019-02-21T20:18:55.442Z,32.23
2019-02-21T20:21:24.128Z,22.80
2019-02-21T20:23:52.759Z,24.13
2019-02-21T20:26:21.483Z,23.93
2019-02-21T20:28:50.223Z,25.97
2019-02-21T20:31:18.958Z,35.20
2019-02-21T20:33:47.671Z,34.07
2019-02-21T20:36:16.477Z,36.65
2019-02-21T20:38:45.194Z,28.50
2019-02-21T20:41:13.899Z,26.95
2019-02-21T20:43:42.661Z,25.47
2019-02-21T20:46:11.295Z,34.00
2019-02-21T20:48:39.914Z,27.87
2019-02-21T20:51:08.675Z,34.15
2019-02-21T20:53:37.414Z,29.50
2019-02-21T20:56:06.353Z,32.80
2019-02-21T20:58:35.243Z,27.60
2019-02-21T21:01:07.247Z,27.07
2019-02-21T21:03:38.629Z,24.95
2019-02-21T21:06:07.515Z,26.00
2019-02-21T21:08:43.194Z,24.40
2019-02-21T21:11:11.543Z,24.33
2019-02-21T21:13:40.567Z,22.53
2019-02-21T21:16:09.316Z,36.83
2019-02-21T21:18:38.017Z,31.00
2019-02-21T21:21:12.777Z,28.93
2019-02-21T21:23:41.516Z,25.83
2019-02-21T21:26:11.184Z,23.27
2019-02-21T21:28:39.967Z,38.50
2019-02-21T21:31:08.720Z,31.87
2019-02-21T21:33:37.432Z,31.63
2019-02-21T21:36:06.159Z,38.98
2019-02-21T21:38:35.005Z,29.67
2019-02-21T21:41:03.816Z,29.50
2019-02-21T21:43:32.513Z,32.13
2019-02-21T21:46:01.423Z,35.77
2019-02-21T21:48:34.187Z,28.37
2019-02-21T21:51:03.794Z,28.85
2019-02-21T21:53:33.591Z,28.93
2019-02-21T21:56:02.784Z,25.83
2019-02-21T21:58:32.842Z,26.30
2019-02-21T22:01:04.888Z,26.80
2019-02-21T22:03:36.623Z,26.73
2019-02-21T22:06:11.977Z,27.10
2019-02-21T22:08:46.825Z,25.60
2019-02-21T22:11:17.062Z,26.33
2019-02-21T22:13:46.648Z,27.70
2019-02-21T22:16:19.014Z,28.02
2019-02-21T22:18:49.942Z,26.50
2019-02-21T22:21:18.880Z,26.43
2019-02-21T22:23:53.785Z,25.10
2019-02-21T22:26:22.695Z,27.17
2019-02-21T22:28:51.537Z,29.98
2019-02-21T22:31:20.229Z,26.97
2019-02-21T22:33:49.063Z,29.90
2019-02-21T22:36:19.512Z,25.67
2019-02-21T22:38:48.227Z,27.47
2019-02-21T22:41:16.977Z,26.50
2019-02-21T22:43:45.690Z,28.60
2019-02-21T22:46:14.418Z,26.70
2019-02-21T22:48:47.160Z,28.60
2019-02-21T22:51:13.586Z,26.00
2019-02-21T22:53:42.405Z,26.90
2019-02-21T22:56:11.051Z,28.07
2019-02-21T22:58:44.969Z,26.63
2019-02-21T23:01:22.402Z,29.80
2019-02-21T23:03:54.115Z,31.90
2019-02-21T23:06:37.817Z,28.65
2019-02-21T23:09:10.096Z,28.50
2019-02-21T23:11:38.839Z,27.67
2019-02-21T23:14:07.596Z,28.40
2019-02-21T23:16:36.227Z,30.23
2019-02-21T23:19:05.256Z,29.70
2019-02-21T23:21:33.936Z,29.57
2019-02-21T23:24:02.593Z,30.20
2019-02-21T23:26:31.441Z,29.27
2019-02-21T23:29:01.019Z,30.17
2019-02-21T23:31:30.615Z,30.67
2019-02-21T23:34:01.045Z,30.53
2019-02-21T23:36:29.724Z,30.20
2019-02-21T23:38:59.458Z,30.80
2019-02-21T23:41:28.867Z,30.53
2019-02-21T23:43:57.539Z,31.00
2019-02-21T23:46:26.315Z,28.93
2019-02-21T23:48:54.911Z,31.80
2019-02-21T23:51:23.670Z,30.03
2019-02-21T23:54:02.544Z,30.30
2019-02-21T23:56:22.765Z,30.60
2019-02-21T23:58:51.487Z,29.20
